Time;durP1;ratioP1;P1;durP2;ratioP2;P2;SDS_P1;SDS_P2;PMS_P1;PMS_P2;Temp;Humidity;BMP_temperature;BMP_pressure;BME280_temperature;BME280_humidity;BME280_pressure;Samples;Min_cycle;Max_cycle;Signal;HPM_P1;HPM_P2
2022/08/04 00:00:06;;;;;;;9.18;2.03;;;;;;;23.13;100.00;101168.00;6321478;28;20048;-77
2022/08/04 00:03:16;;;;;;;6.10;2.42;;;;;;;23.06;100.00;101164.22;6321808;28;20048;-76
2022/08/04 00:06:23;;;;;;;3.85;2.05;;;;;;;23.01;100.00;101167.34;6321208;28;20518;-77
2022/08/04 00:09:30;;;;;;;5.20;2.15;;;;;;;22.96;100.00;101174.19;6322032;28;20487;-77
2022/08/04 00:12:37;;;;;;;2.97;1.70;;;;;;;22.90;100.00;101167.59;6321338;28;20048;-76
2022/08/04 00:15:38;;;;;;;5.72;1.85;;;;;;;22.86;100.00;101174.22;6321541;28;20063;-77
2022/08/04 00:18:41;;;;;;;4.95;2.55;;;;;;;22.81;100.00;101168.47;6321803;28;20059;-77
2022/08/04 00:21:47;;;;;;;5.90;2.20;;;;;;;22.76;100.00;101160.03;6325109;28;20396;-77
2022/08/04 00:24:49;;;;;;;4.75;2.17;;;;;;;22.70;100.00;101166.81;6326534;28;20136;-77
2022/08/04 00:27:52;;;;;;;5.88;1.67;;;;;;;22.61;100.00;101158.84;6326334;28;20047;-77
2022/08/04 00:30:54;;;;;;;7.20;2.33;;;;;;;22.57;100.00;101160.97;6325821;28;20061;-76
2022/08/04 00:33:56;;;;;;;8.73;2.17;;;;;;;22.53;100.00;101156.94;6326122;28;20514;-77
2022/08/04 00:36:58;;;;;;;6.13;2.47;;;;;;;22.51;100.00;101149.03;6326226;28;20052;-76
2022/08/04 00:40:01;;;;;;;6.07;2.08;;;;;;;22.48;100.00;101153.84;6325706;28;20051;-76
2022/08/04 00:43:19;;;;;;;3.67;2.08;;;;;;;22.45;100.00;101154.16;6326056;28;20407;-76
2022/08/04 00:46:45;;;;;;;1.70;1.58;;;;;;;22.39;100.00;101160.09;6325777;28;20043;-77
2022/08/04 00:50:07;;;;;;;5.40;1.85;;;;;;;22.34;100.00;101159.69;6325599;28;20502;-77
2022/08/04 00:53:19;;;;;;;4.38;2.20;;;;;;;22.30;100.00;101159.13;6325955;28;20487;-77
2022/08/04 00:56:44;;;;;;;8.55;1.63;;;;;;;22.25;100.00;101164.09;6325348;28;20048;-77
2022/08/04 01:00:03;;;;;;;3.10;1.92;;;;;;;22.20;100.00;101161.03;6325631;28;20059;-76
2022/08/04 01:03:12;;;;;;;4.00;1.90;;;;;;;22.16;100.00;101157.78;6325390;28;20051;-76
2022/08/04 01:06:24;;;;;;;2.57;1.80;;;;;;;22.14;100.00;101153.59;6324898;28;20048;-76
2022/08/04 01:09:40;;;;;;;5.93;1.77;;;;;;;22.09;100.00;101158.50;6325449;28;20055;-76
2022/08/04 01:13:01;;;;;;;4.82;2.45;;;;;;;22.06;100.00;101148.94;6325003;28;20055;-76
2022/08/04 01:16:06;;;;;;;8.13;2.15;;;;;;;22.04;100.00;101153.59;6324950;28;20047;-76
2022/08/04 01:19:26;;;;;;;4.82;2.20;;;;;;;21.96;100.00;101154.31;6324646;28;20551;-76
2022/08/04 01:23:06;;;;;;;6.32;2.45;;;;;;;21.94;100.00;101150.94;6324890;28;20458;-76
2022/08/04 01:26:41;;;;;;;5.32;1.77;;;;;;;21.93;100.00;101149.25;6324572;28;20070;-76
2022/08/04 01:29:49;;;;;;;3.63;2.15;;;;;;;21.91;100.00;101137.84;6324309;28;20060;-76
2022/08/04 01:32:52;;;;;;;3.60;2.07;;;;;;;21.89;100.00;101141.66;6324027;28;20051;-76
2022/08/04 01:35:56;;;;;;;6.22;2.70;;;;;;;21.87;100.00;101136.47;6323962;28;20048;-76
2022/08/04 01:38:58;;;;;;;5.30;2.80;;;;;;;21.82;100.00;101132.53;6324499;28;20051;-76
2022/08/04 01:42:02;;;;;;;14.38;2.15;;;;;;;21.80;100.00;101132.66;6323848;28;20411;-76
2022/08/04 01:45:07;;;;;;;4.85;2.17;;;;;;;21.78;100.00;101132.81;6324259;28;20055;-76
2022/08/04 01:48:08;;;;;;;5.25;2.10;;;;;;;21.76;100.00;101134.81;6324006;28;20048;-76
2022/08/04 01:51:10;;;;;;;7.63;1.98;;;;;;;21.73;100.00;101127.06;6324307;28;20052;-76
2022/08/04 01:54:15;;;;;;;4.97;2.65;;;;;;;21.73;100.00;101131.56;6323804;28;20058;-76
2022/08/04 01:57:18;;;;;;;8.27;2.80;;;;;;;21.71;100.00;101128.19;6324246;28;20055;-76
2022/08/04 02:00:23;;;;;;;5.10;2.35;;;;;;;21.70;100.00;101134.53;6323821;28;20636;-76
2022/08/04 02:03:24;;;;;;;9.25;2.55;;;;;;;21.69;100.00;101130.16;6323563;28;20052;-76
2022/08/04 02:06:32;;;;;;;5.28;2.08;;;;;;;21.69;100.00;101124.81;6323582;28;20105;-76
2022/08/04 02:09:42;;;;;;;2.63;2.00;;;;;;;21.71;100.00;101123.69;6323347;28;20055;-76
2022/08/04 02:12:53;;;;;;;4.50;2.03;;;;;;;21.69;100.00;101122.16;6323672;28;20522;-76
2022/08/04 02:16:02;;;;;;;8.50;2.22;;;;;;;21.67;100.00;101118.78;6323218;28;20048;-75
2022/08/04 02:19:15;;;;;;;7.82;2.78;;;;;;;21.65;100.00;101118.91;6323528;28;20048;-75
2022/08/04 02:22:19;;;;;;;7.15;2.17;;;;;;;21.63;100.00;101107.53;6323263;28;20648;-76
2022/08/04 02:25:24;;;;;;;3.15;2.45;;;;;;;21.60;100.00;101107.81;6322873;28;20055;-76
2022/08/04 02:28:33;;;;;;;5.05;2.25;;;;;;;21.60;100.00;101109.63;6323010;28;20403;-76
2022/08/04 02:31:48;;;;;;;10.45;3.10;;;;;;;21.56;100.00;101113.59;6322846;28;20055;-76
2022/08/04 02:34:54;;;;;;;9.85;2.85;;;;;;;21.53;100.00;101114.72;6322993;28;20044;-76
2022/08/04 02:38:04;;;;;;;4.68;2.20;;;;;;;21.49;100.00;101116.84;6322723;28;20047;-76
2022/08/04 02:41:07;;;;;;;6.72;2.33;;;;;;;21.48;100.00;101108.94;6322973;28;20048;-75
2022/08/04 02:44:10;;;;;;;9.70;2.70;;;;;;;21.46;100.00;101105.59;6322744;28;20074;-76
2022/08/04 02:47:14;;;;;;;4.45;2.42;;;;;;;21.41;100.00;101107.84;6322620;28;20048;-76
2022/08/04 02:50:18;;;;;;;5.10;2.00;;;;;;;21.37;100.00;101104.63;6274532;28;20404;-76
2022/08/04 02:53:22;;;;;;;4.78;2.22;;;;;;;21.36;100.00;101102.94;6272718;28;20051;-76
2022/08/04 02:56:24;;;;;;;6.93;2.15;;;;;;;21.36;100.00;101102.94;6272304;28;20049;-76
2022/08/04 02:59:27;;;;;;;5.13;3.08;;;;;;;21.36;100.00;101113.63;6272469;28;20405;-75
2022/08/04 03:02:39;;;;;;;4.68;2.28;;;;;;;21.36;100.00;101108.28;6272324;28;20063;-76
2022/08/04 03:05:57;;;;;;;4.80;2.25;;;;;;;21.38;100.00;101100.09;6272232;28;20071;-76
2022/08/04 03:09:50;;;;;;;5.93;2.73;;;;;;;21.36;100.00;101099.41;6272399;28;20053;-76
2022/08/04 03:13:22;;;;;;;2.72;1.92;;;;;;;21.35;100.00;101095.03;6272183;28;20295;-76
2022/08/04 03:16:43;;;;;;;6.72;2.70;;;;;;;21.30;100.00;101098.09;6272224;28;20056;-76
2022/08/04 03:20:12;;;;;;;7.53;3.00;;;;;;;21.27;100.00;101099.25;6271893;28;20451;-76
2022/08/04 03:23:42;;;;;;;4.10;2.30;;;;;;;21.22;100.00;101101.50;6272080;28;20394;-76
2022/08/04 03:26:54;;;;;;;6.63;2.40;;;;;;;21.20;100.00;101100.78;6272090;28;20076;-76
2022/08/04 03:30:05;;;;;;;4.82;3.13;;;;;;;21.20;100.00;101103.47;6271530;28;20055;-76
2022/08/04 03:33:44;;;;;;;5.93;2.63;;;;;;;21.20;100.00;101097.28;6271857;28;20049;-76
2022/08/04 03:37:11;;;;;;;10.50;3.13;;;;;;;21.18;100.00;101094.75;6272048;28;20045;-75
2022/08/04 03:40:34;;;;;;;7.43;3.08;;;;;;;21.18;100.00;101088.56;6271554;28;20056;-76
2022/08/04 03:43:59;;;;;;;8.02;2.90;;;;;;;21.16;100.00;101091.38;6271675;28;20132;-76
2022/08/04 03:47:28;;;;;;;6.35;2.75;;;;;;;21.13;100.00;101090.84;6271553;28;20045;-76
2022/08/04 03:53:07;;;;;;;4.78;2.50;;;;;;;21.11;100.00;101090.09;6271600;28;20059;-76
2022/08/04 03:54:54;;;;;;;3.75;2.42;;;;;;;21.05;100.00;101093.34;6270895;28;20129;-75
2022/08/04 03:58:36;;;;;;;5.47;2.70;;;;;;;21.01;100.00;101090.97;6271490;28;20071;-76
2022/08/04 04:02:06;;;;;;;10.50;3.13;;;;;;;20.98;100.00;101085.03;6271452;28;20048;-76
2022/08/04 04:05:31;;;;;;;10.68;2.60;;;;;;;20.96;100.00;101085.19;6271152;28;20060;-76
2022/08/04 04:08:59;;;;;;;5.25;2.60;;;;;;;20.93;100.00;101082.78;6271301;28;20048;-76
2022/08/04 04:12:21;;;;;;;7.03;2.85;;;;;;;20.95;100.00;101085.34;6271417;28;20053;-75
2022/08/04 04:15:40;;;;;;;6.05;2.83;;;;;;;20.95;100.00;101075.50;6270965;28;20056;-75
2022/08/04 04:18:57;;;;;;;6.03;3.15;;;;;;;20.98;100.00;101074.34;6271089;28;20400;-76
2022/08/04 04:22:10;;;;;;;5.55;2.90;;;;;;;21.01;100.00;101082.94;6271391;28;20052;-75
2022/08/04 04:25:34;;;;;;;10.32;3.47;;;;;;;21.01;100.00;101080.28;6271199;28;20045;-76
2022/08/04 04:28:55;;;;;;;6.50;2.70;;;;;;;21.02;100.00;101076.59;6271426;28;20128;-75
2022/08/04 04:32:10;;;;;;;6.65;2.72;;;;;;;21.03;100.00;101069.47;6270851;28;20072;-75
2022/08/04 04:35:22;;;;;;;5.70;2.63;;;;;;;21.06;100.00;101065.66;6270932;28;20168;-75
2022/08/04 04:38:37;;;;;;;6.10;3.15;;;;;;;21.07;100.00;101062.81;6271251;28;20402;-75
2022/08/04 04:42:06;;;;;;;5.32;2.85;;;;;;;21.07;100.00;101070.84;6270838;28;20488;-75
2022/08/04 04:45:23;;;;;;;4.47;2.83;;;;;;;21.06;100.00;101071.00;6270929;28;20053;-75
2022/08/04 04:48:36;;;;;;;3.30;2.72;;;;;;;21.08;100.00;101075.22;6271060;28;20554;-75
2022/08/04 04:51:49;;;;;;;7.80;3.10;;;;;;;21.11;100.00;101060.72;6270838;28;20048;-76
2022/08/04 04:54:58;;;;;;;7.75;2.58;;;;;;;21.15;100.00;101062.97;6270698;28;20083;-76
2022/08/04 04:58:01;;;;;;;7.60;3.00;;;;;;;21.18;100.00;101061.84;6270876;28;20044;-75
2022/08/04 05:01:38;;;;;;;5.18;2.63;;;;;;;21.23;100.00;101052.41;6270686;28;20045;-78
2022/08/04 05:05:16;;;;;;;4.53;2.60;;;;;;;21.28;100.00;101054.63;6264111;28;20049;-75
2022/08/04 05:08:34;;;;;;;8.40;3.08;;;;;;;21.33;100.00;101047.06;6273516;28;20515;-76
2022/08/04 05:12:14;;;;;;;4.13;2.17;;;;;;;21.37;100.00;101050.28;6274835;28;20044;-74
2022/08/04 05:15:18;;;;;;;5.22;2.92;;;;;;;21.44;100.00;101054.94;6274481;28;20079;-75
2022/08/04 05:18:24;;;;;;;5.32;2.88;;;;;;;21.49;100.00;101055.34;6274980;28;20041;-75
2022/08/04 05:21:37;;;;;;;3.15;2.30;;;;;;;21.52;100.00;101056.84;6292067;28;20051;-75
2022/08/04 05:24:44;;;;;;;4.22;2.55;;;;;;;21.53;100.00;101058.56;6295842;28;20484;-75
2022/08/04 05:27:51;;;;;;;6.35;2.55;;;;;;;21.55;100.00;101055.75;6297819;28;20047;-76
2022/08/04 05:30:58;;;;;;;5.93;2.40;;;;;;;21.58;100.00;101050.94;6297671;28;20056;-75
2022/08/04 05:34:08;;;;;;;6.20;2.15;;;;;;;21.60;100.00;101050.78;6295818;28;20487;-75
2022/08/04 05:37:14;;;;;;;6.22;2.35;;;;;;;21.61;100.00;101044.44;6297753;28;20488;-75
2022/08/04 05:40:17;;;;;;;6.40;2.65;;;;;;;;;;6295294;28;20048;-75
2022/08/04 05:43:20;;;;;;;4.25;2.38;;;;;;;21.66;100.00;101040.34;6298941;28;20048;-75
2022/08/04 05:46:22;;;;;;;3.38;2.08;;;;;;;21.70;100.00;101033.72;6299261;28;20044;-75
2022/08/04 05:49:27;;;;;;;3.03;2.08;;;;;;;21.72;100.00;101034.41;6298814;28;20452;-74
2022/08/04 05:52:30;;;;;;;3.33;2.03;;;;;;;21.76;100.00;101034.97;6299458;28;20060;-75
2022/08/04 05:55:32;;;;;;;5.50;2.22;;;;;;;21.79;100.00;101024.78;6298552;28;20044;-75
2022/08/04 05:58:35;;;;;;;3.08;2.00;;;;;;;21.83;100.00;101027.19;6298806;28;20052;-76
2022/08/04 06:01:38;;;;;;;4.43;2.10;;;;;;;21.83;100.00;101025.34;6298706;28;20051;-76
2022/08/04 06:04:45;;;;;;;5.78;2.10;;;;;;;21.86;100.00;101021.56;6298569;28;20442;-75
2022/08/04 06:07:47;;;;;;;9.95;2.28;;;;;;;21.87;100.00;101018.72;6298567;28;20041;-75
2022/08/04 06:10:50;;;;;;;4.38;2.03;;;;;;;21.91;100.00;101016.59;6298608;28;20048;-75
2022/08/04 06:13:56;;;;;;;6.70;2.65;;;;;;;21.93;100.00;101019.94;6298243;28;20044;-75
2022/08/04 06:16:59;;;;;;;3.58;1.90;;;;;;;21.93;100.00;101015.44;6298584;28;20058;-76
2022/08/04 06:20:05;;;;;;;3.55;1.90;;;;;;;21.98;100.00;101012.31;6297615;28;20427;-75
2022/08/04 06:23:10;;;;;;;4.43;2.00;;;;;;;22.01;100.00;101012.03;6298483;28;20078;-75
2022/08/04 06:26:17;;;;;;;3.90;2.10;;;;;;;22.09;100.00;101013.97;6297918;28;20067;-75
2022/08/04 06:29:25;;;;;;;4.22;2.15;;;;;;;22.11;100.00;101010.13;6297817;28;20045;-76
2022/08/04 06:32:35;;;;;;;2.33;1.75;;;;;;;22.14;100.00;101004.50;6298052;28;20051;-75
2022/08/04 06:35:38;;;;;;;4.72;2.40;;;;;;;22.18;100.00;101002.38;6298028;28;20105;-75
2022/08/04 06:38:41;;;;;;;6.05;1.65;;;;;;;22.20;100.00;101003.91;6297902;28;20048;-76
2022/08/04 06:41:43;;;;;;;6.22;2.33;;;;;;;22.22;100.00;100995.75;6297510;28;20047;-78
2022/08/04 06:44:48;;;;;;;3.70;2.08;;;;;;;22.26;100.00;100994.44;6297455;28;20059;-75
2022/08/04 06:47:50;;;;;;;2.47;1.50;;;;;;;22.34;100.00;101002.53;6297414;28;20041;-75
2022/08/04 06:50:53;;;;;;;2.75;2.10;;;;;;;22.40;100.00;101001.09;6297395;28;20056;-75
2022/08/04 06:53:54;;;;;;;3.08;2.00;;;;;;;22.47;100.00;101005.69;6297220;28;20048;-76
2022/08/04 06:56:58;;;;;;;2.97;2.00;;;;;;;22.57;100.00;100999.41;6297600;28;20048;-75
2022/08/04 07:00:04;;;;;;;5.88;1.73;;;;;;;22.66;100.00;100991.28;6297151;28;20051;-76
2022/08/04 07:03:06;;;;;;;2.85;1.63;;;;;;;22.73;100.00;100992.34;6297508;28;20051;-76
2022/08/04 07:06:09;;;;;;;2.83;1.50;;;;;;;22.79;100.00;100994.41;6297157;28;20058;-76
2022/08/04 07:09:11;;;;;;;8.55;2.10;;;;;;;22.87;100.00;100990.97;6297108;28;20052;-76
2022/08/04 07:12:13;;;;;;;1.67;1.50;;;;;;;22.97;100.00;100989.06;6296721;28;20056;-76
2022/08/04 07:15:17;;;;;;;2.75;1.30;;;;;;;23.10;100.00;100985.13;6296627;28;20051;-76
2022/08/04 07:18:18;;;;;;;3.63;1.58;;;;;;;23.18;100.00;100985.19;6296832;28;20048;-76
2022/08/04 07:21:23;;;;;;;2.65;1.45;;;;;;;23.25;100.00;100984.38;6296841;28;20060;-76
2022/08/04 07:24:29;;;;;;;3.33;1.67;;;;;;;23.30;100.00;100975.88;6296761;28;20131;-76
2022/08/04 07:27:30;;;;;;;6.80;1.50;;;;;;;23.38;100.00;100983.13;6297118;28;20049;-76
2022/08/04 07:30:34;;;;;;;2.92;1.45;;;;;;;23.45;100.00;100978.81;6295863;28;20056;-76
2022/08/04 07:33:36;;;;;;;2.40;1.65;;;;;;;23.56;100.00;100978.50;6296773;28;20049;-76
2022/08/04 07:36:39;;;;;;;1.65;1.05;;;;;;;23.64;100.00;100981.28;6281278;28;20072;-76
2022/08/04 07:39:40;;;;;;;2.60;1.20;;;;;;;23.72;98.68;100977.78;6300292;28;20040;-76
2022/08/04 07:42:43;;;;;;;3.28;1.38;;;;;;;23.78;98.33;100969.91;6296288;28;20059;-76
2022/08/04 07:45:44;;;;;;;3.38;1.73;;;;;;;23.87;97.59;100978.84;6295512;28;20056;-76
2022/08/04 07:48:46;;;;;;;1.80;1.20;;;;;;;23.96;97.83;100972.50;6296672;28;20047;-77
2022/08/04 07:51:50;;;;;;;2.25;1.40;;;;;;;24.02;96.88;100963.78;6290093;28;20420;-75
2022/08/04 07:54:53;;;;;;;1.80;1.42;;;;;;;24.08;97.56;100967.66;6271045;28;20471;-76
2022/08/04 07:57:55;;;;;;;2.22;1.40;;;;;;;24.16;95.48;100962.28;6271387;28;20049;-76
2022/08/04 08:00:56;;;;;;;2.25;1.52;;;;;;;24.25;94.66;100960.47;6271388;28;20049;-75
2022/08/04 08:03:59;;;;;;;1.55;1.23;;;;;;;24.36;95.16;100956.63;6271545;28;20048;-76
2022/08/04 08:07:01;;;;;;;2.13;1.60;;;;;;;24.47;93.07;100959.00;6271644;28;20060;-76
2022/08/04 08:10:03;;;;;;;3.85;1.75;;;;;;;24.62;92.73;100953.81;6287014;28;20048;-76
2022/08/04 08:13:06;;;;;;;2.25;1.48;;;;;;;24.73;91.54;100950.78;6295870;28;20097;-76
2022/08/04 08:16:08;;;;;;;1.90;1.50;;;;;;;24.85;90.41;100951.28;6296208;28;20051;-78
2022/08/04 08:19:10;;;;;;;1.98;1.17;;;;;;;24.95;87.41;100949.25;6296262;28;20044;-76
2022/08/04 08:22:13;;;;;;;4.88;1.77;;;;;;;25.02;86.53;100950.22;6296249;28;20046;-76
2022/08/04 08:25:14;;;;;;;1.80;1.00;;;;;;;25.09;84.67;100953.97;6295609;28;20060;-75
2022/08/04 08:28:16;;;;;;;1.38;1.17;;;;;;;25.17;80.98;100942.34;6295968;28;20510;-75
2022/08/04 08:31:17;;;;;;;1.13;1.00;;;;;;;25.21;79.29;100939.16;6295424;28;20048;-75
2022/08/04 08:34:19;;;;;;;1.77;1.35;;;;;;;25.34;75.93;100937.75;6295481;28;20048;-75
2022/08/04 08:37:30;;;;;;;1.92;1.33;;;;;;;25.45;76.07;100935.53;6295944;28;20053;-76
2022/08/04 08:40:40;;;;;;;2.22;1.30;;;;;;;25.54;75.32;100930.94;6295670;28;20447;-76
2022/08/04 08:44:01;;;;;;;3.22;1.50;;;;;;;25.59;75.60;100935.81;6300088;28;20090;-76
2022/08/04 08:47:15;;;;;;;1.90;1.30;;;;;;;25.69;74.31;100936.44;6300448;28;20054;-75
2022/08/04 08:50:57;;;;;;;2.92;1.50;;;;;;;25.80;72.30;100933.38;6300370;28;20055;-76
2022/08/04 08:54:24;;;;;;;1.48;1.38;;;;;;;25.98;71.03;100930.41;6300167;28;20052;-77
2022/08/04 08:57:42;;;;;;;3.28;1.58;;;;;;;26.28;66.64;100926.00;6300206;28;20048;-76
2022/08/04 09:00:50;;;;;;;1.42;1.10;;;;;;;26.42;66.52;100929.75;6300023;28;20531;-76
2022/08/04 09:04:22;;;;;;;2.30;1.40;;;;;;;26.47;66.16;100930.06;6300103;28;20269;-76
2022/08/04 09:07:37;;;;;;;2.70;1.40;;;;;;;26.36;68.23;100917.84;6299876;28;20045;-76
2022/08/04 09:10:45;;;;;;;1.20;1.10;;;;;;;26.29;67.62;100923.09;6299580;28;20048;-77
2022/08/04 09:13:54;;;;;;;3.75;2.08;;;;;;;26.41;66.70;100925.38;6299878;28;20048;-76
2022/08/04 09:17:02;;;;;;;2.85;1.27;;;;;;;26.48;67.17;100916.44;6299685;28;20055;-76
2022/08/04 09:20:07;;;;;;;1.80;1.52;;;;;;;26.61;66.55;100914.97;6299820;28;20048;-77
2022/08/04 09:23:17;;;;;;;2.05;1.35;;;;;;;26.77;65.65;100920.22;6299882;28;20067;-76
2022/08/04 09:26:26;;;;;;;5.05;1.35;;;;;;;26.91;64.57;100915.88;6299801;28;20052;-76
2022/08/04 09:29:36;;;;;;;1.45;1.20;;;;;;;27.02;62.74;100912.69;6299194;28;20045;-76
2022/08/04 09:32:47;;;;;;;2.20;1.38;;;;;;;27.10;63.15;100904.53;6299423;28;20059;-76
2022/08/04 09:35:56;;;;;;;1.67;1.20;;;;;;;27.16;63.93;100902.97;6299117;28;20675;-76
2022/08/04 09:39:06;;;;;;;2.35;1.40;;;;;;;27.37;59.58;100904.91;6299327;28;20048;-76
2022/08/04 09:42:18;;;;;;;1.52;1.10;;;;;;;27.42;61.24;100899.78;6299148;28;20060;-76
2022/08/04 09:45:27;;;;;;;3.00;1.15;;;;;;;27.40;61.39;100904.53;6274300;28;20056;-76
2022/08/04 09:48:42;;;;;;;1.70;1.20;;;;;;;27.51;61.74;100904.88;6274001;28;20408;-76
2022/08/04 09:51:53;;;;;;;1.63;1.42;;;;;;;27.59;59.50;100901.25;6274429;28;20064;-76
2022/08/04 09:55:05;;;;;;;1.70;1.08;;;;;;;28.10;55.42;100901.22;6273281;28;20060;-76
2022/08/04 09:58:21;;;;;;;1.77;1.00;;;;;;;28.22;54.32;100891.56;6274323;28;20496;-76
2022/08/04 10:01:24;;;;;;;2.55;1.55;;;;;;;28.42;55.12;100896.34;6273777;28;20049;-78
2022/08/04 10:04:30;;;;;;;1.55;1.10;;;;;;;28.63;54.97;100885.50;6273736;28;20056;-76
2022/08/04 10:07:46;;;;;;;1.70;1.20;;;;;;;28.55;53.88;100889.16;6273752;28;20092;-75
2022/08/04 10:10:55;;;;;;;1.60;1.13;;;;;;;28.67;53.19;100878.66;6273673;28;20048;-76
2022/08/04 10:14:05;;;;;;;4.18;1.10;;;;;;;28.70;52.63;100878.25;6283261;28;20049;-76
2022/08/04 10:17:41;;;;;;;2.53;1.20;;;;;;;28.77;52.48;100881.00;6298478;28;20488;-76
2022/08/04 10:20:51;;;;;;;1.48;0.93;;;;;;;28.94;51.02;100881.53;6294859;28;20434;-76
2022/08/04 10:24:10;;;;;;;1.42;1.10;;;;;;;29.28;50.03;100875.28;6299209;28;20056;-77
2022/08/04 10:27:20;;;;;;;1.30;1.20;;;;;;;29.38;48.74;100866.78;6298242;28;20052;-76
2022/08/04 10:30:24;;;;;;;1.25;1.10;;;;;;;29.73;46.98;100862.97;6297505;28;20055;-76
2022/08/04 10:33:34;;;;;;;5.30;1.40;;;;;;;29.96;46.68;100865.31;6299997;28;20057;-77
2022/08/04 10:36:44;;;;;;;1.55;1.40;;;;;;;29.96;45.40;100859.06;6298464;28;20045;-76
2022/08/04 10:43:19;;;;;;;1.92;0.80;;;;;;;29.96;41.90;100853.63;6298216;28;20494;-77
2022/08/04 10:46:26;;;;;;;7.53;2.17;;;;;;;30.04;41.79;100851.56;6297930;28;20098;-76
2022/08/04 10:49:34;;;;;;;1.27;1.05;;;;;;;30.03;42.61;100846.34;6297333;28;20044;-76
2022/08/04 10:52:43;;;;;;;1.17;1.00;;;;;;;30.14;41.92;100834.09;6297473;28;20056;-77
2022/08/04 10:55:50;;;;;;;1.40;1.00;;;;;;;30.39;40.13;100840.56;6291253;28;20444;-77
2022/08/04 10:58:57;;;;;;;2.25;1.10;;;;;;;30.51;41.65;100852.41;6289232;28;20049;-77
2022/08/04 11:02:12;;;;;;;1.05;0.88;;;;;;;30.62;39.44;100839.28;6277618;28;20045;-77
2022/08/04 11:05:27;;;;;;;2.22;1.25;;;;;;;30.65;41.04;100841.53;6301063;28;20048;-78
2022/08/04 11:08:34;;;;;;;2.05;0.95;;;;;;;30.63;42.01;100836.34;6296643;28;20050;-78
2022/08/04 11:11:40;;;;;;;1.02;0.90;;;;;;;30.65;41.53;100842.38;6272811;28;20060;-76
2022/08/04 11:14:46;;;;;;;1.55;1.20;;;;;;;30.87;41.47;100840.28;6272506;28;20049;-77
2022/08/04 11:17:55;;;;;;;1.35;1.13;;;;;;;31.08;39.69;100836.47;6272631;28;20488;-77
2022/08/04 11:21:07;;;;;;;1.60;1.20;;;;;;;31.31;39.59;100841.41;6272740;28;20045;-77
2022/08/04 11:24:15;;;;;;;1.10;1.00;;;;;;;31.46;39.91;100844.66;6273919;28;20053;-77
2022/08/04 11:27:22;;;;;;;1.17;1.00;;;;;;;31.69;37.14;100846.00;6274795;28;20045;-76
2022/08/04 11:30:29;;;;;;;0.90;0.73;;;;;;;31.68;37.30;100845.19;6272081;28;20060;-77
2022/08/04 11:33:41;;;;;;;1.77;1.00;;;;;;;31.75;36.48;100835.09;6280107;28;20041;-77
2022/08/04 11:36:49;;;;;;;1.20;0.80;;;;;;;31.92;36.80;100834.59;6298525;28;20505;-77
2022/08/04 11:39:57;;;;;;;1.48;0.95;;;;;;;32.21;36.56;100838.56;6317860;28;20162;-79
2022/08/04 11:43:02;;;;;;;1.17;0.90;;;;;;;32.32;36.56;100830.50;6321867;28;20048;-76
2022/08/04 11:46:08;;;;;;;1.50;1.10;;;;;;;32.30;36.28;100832.63;6315077;28;20055;-77
2022/08/04 11:49:16;;;;;;;1.85;1.27;;;;;;;32.40;36.42;100834.03;6324200;28;20115;-78
2022/08/04 11:52:20;;;;;;;1.48;0.88;;;;;;;32.68;35.87;100826.19;6327423;28;20491;-78
2022/08/04 11:55:25;;;;;;;1.23;1.00;;;;;;;33.10;34.12;100826.38;6326321;28;20052;-79
2022/08/04 11:58:27;;;;;;;1.50;0.88;;;;;;;33.30;32.74;100823.41;6326320;28;20483;-76
2022/08/04 12:01:38;;;;;;;0.65;0.65;;;;;;;33.50;33.09;100821.25;6321178;28;20048;-77
2022/08/04 12:04:47;;;;;;;0.70;0.70;;;;;;;33.65;33.27;100823.56;6319180;28;20047;-78
2022/08/04 12:07:57;;;;;;;0.65;0.60;;;;;;;33.81;32.47;100822.06;6325653;28;20384;-78
2022/08/04 12:11:09;;;;;;;0.77;0.73;;;;;;;34.15;32.34;100825.13;6323489;28;20411;-78
2022/08/04 12:14:21;;;;;;;0.93;0.85;;;;;;;34.39;30.00;100828.72;6326218;28;20048;-77
2022/08/04 12:17:31;;;;;;;0.82;0.80;;;;;;;34.60;30.76;100816.38;6331019;28;20051;-79
2022/08/04 12:20:41;;;;;;;1.10;0.88;;;;;;;34.68;30.32;100822.28;6331126;28;20044;-78
2022/08/04 12:23:44;;;;;;;0.68;0.68;;;;;;;34.93;31.03;100819.28;6328443;28;20056;-77
2022/08/04 12:26:52;;;;;;;0.60;0.60;;;;;;;35.30;30.83;100814.34;6331848;28;20055;-78
2022/08/04 12:29:54;;;;;;;1.35;0.88;;;;;;;35.47;29.93;100821.75;6325078;28;20131;-78
2022/08/04 12:33:02;;;;;;;0.75;0.75;;;;;;;35.74;28.11;100813.78;6295761;28;20052;-77
2022/08/04 12:36:17;;;;;;;1.02;0.80;;;;;;;35.24;28.79;100809.00;6286233;28;20060;-78
2022/08/04 12:39:20;;;;;;;1.05;0.90;;;;;;;35.00;28.99;100811.81;6289413;28;20052;-79
2022/08/04 12:42:27;;;;;;;0.95;0.80;;;;;;;34.66;29.05;100804.47;6305953;28;20060;-76
2022/08/04 12:45:30;;;;;;;0.85;0.85;;;;;;;34.54;29.91;100809.97;6277597;28;20056;-78
2022/08/04 12:48:33;;;;;;;0.90;0.80;;;;;;;34.72;31.38;100811.72;6280247;28;20052;-78
2022/08/04 12:51:43;;;;;;;1.85;1.05;;;;;;;34.55;29.94;100812.44;6278455;28;20052;-80
2022/08/04 12:54:46;;;;;;;0.90;0.80;;;;;;;34.19;30.70;100820.84;6279387;28;20056;-76
2022/08/04 12:57:50;;;;;;;2.55;0.90;;;;;;;33.97;30.93;100805.03;6278423;28;20092;-79
2022/08/04 13:00:55;;;;;;;0.73;0.73;;;;;;;33.75;31.85;100803.94;6281352;28;20049;-79
2022/08/04 13:04:01;;;;;;;1.25;0.88;;;;;;;33.78;31.47;100806.16;6278334;28;20492;-79
2022/08/04 13:07:09;;;;;;;1.20;1.00;;;;;;;33.87;31.10;100809.38;6279875;28;20582;-78
2022/08/04 13:10:12;;;;;;;0.73;0.70;;;;;;;33.73;30.24;100808.78;6277523;28;20416;-77
2022/08/04 13:13:17;;;;;;;0.75;0.68;;;;;;;33.97;29.98;100804.22;6277127;28;20579;-77
2022/08/04 13:16:18;;;;;;;1.73;0.80;;;;;;;34.59;29.18;100790.97;6276085;28;20063;-78
2022/08/04 13:19:20;;;;;;;0.65;0.63;;;;;;;34.60;28.61;100791.78;6275989;28;20056;-77
2022/08/04 13:22:28;;;;;;;2.00;1.27;;;;;;;34.38;29.78;100803.28;6276052;28;20132;-78
2022/08/04 13:25:31;;;;;;;0.95;0.70;;;;;;;34.29;28.57;100788.34;6276170;28;20045;-77
2022/08/04 13:28:34;;;;;;;0.57;0.55;;;;;;;34.32;29.53;100794.16;6274203;28;20049;-77
2022/08/04 13:31:37;;;;;;;0.70;0.68;;;;;;;34.37;28.36;100790.72;6275785;28;20481;-76
2022/08/04 13:34:42;;;;;;;1.13;0.60;;;;;;;34.92;29.74;100789.47;6275555;28;20060;-77
2022/08/04 13:37:46;;;;;;;0.60;0.60;;;;;;;35.40;27.58;100785.53;6276041;28;20086;-77
2022/08/04 13:40:48;;;;;;;1.55;0.68;;;;;;;35.28;27.58;100785.56;6275903;28;20045;-77
2022/08/04 13:43:54;;;;;;;1.65;0.82;;;;;;;34.77;28.13;100785.34;6275908;28;20056;-77
2022/08/04 13:46:58;;;;;;;1.42;0.70;;;;;;;34.71;29.00;100780.88;6275172;28;20057;-77
2022/08/04 13:50:11;;;;;;;0.68;0.68;;;;;;;35.15;29.52;100775.75;6276155;28;20045;-77
2022/08/04 13:53:18;;;;;;;0.80;0.80;;;;;;;35.51;28.92;100769.09;6278117;28;20049;-78
2022/08/04 13:56:21;;;;;;;0.85;0.85;;;;;;;35.48;28.51;100769.59;6277646;28;20052;-78
2022/08/04 13:59:27;;;;;;;0.80;0.63;;;;;;;35.47;27.61;100762.44;6274960;28;20049;-76
2022/08/04 14:02:34;;;;;;;0.70;0.70;;;;;;;35.53;27.38;100774.31;6274513;28;20060;-77
2022/08/04 14:05:36;;;;;;;1.38;0.93;;;;;;;35.72;27.62;100791.31;6275416;28;20052;-77
2022/08/04 14:08:48;;;;;;;1.13;0.60;;;;;;;35.61;27.13;100781.28;6274237;28;20562;-78
2022/08/04 14:11:51;;;;;;;1.23;1.05;;;;;;;35.18;26.85;100779.91;6276403;28;20045;-76
2022/08/04 14:14:53;;;;;;;0.77;0.60;;;;;;;35.11;27.00;100785.50;6274011;28;20426;-78
2022/08/04 14:18:15;;;;;;;0.60;0.50;;;;;;;34.75;27.68;100781.22;6282162;28;20044;-78
2022/08/04 14:21:17;;;;;;;0.70;0.55;;;;;;;34.27;25.59;100785.84;6317389;28;20036;-79
2022/08/04 14:24:28;;;;;;;0.68;0.60;;;;;;;34.20;25.98;100787.03;6325252;28;20500;-78
2022/08/04 14:27:31;;;;;;;0.73;0.63;;;;;;;33.94;26.80;100794.59;6311008;28;20046;-78
2022/08/04 14:30:35;;;;;;;0.63;0.60;;;;;;;33.76;26.17;100797.41;6302390;28;20049;-80
2022/08/04 14:33:37;;;;;;;1.65;0.60;;;;;;;33.64;26.71;100797.38;6303198;28;20048;-78
2022/08/04 14:36:40;;;;;;;0.47;0.47;;;;;;;33.60;26.95;100798.06;6302583;28;20492;-78
2022/08/04 14:39:46;;;;;;;1.70;0.80;;;;;;;33.51;27.42;100803.00;6302015;28;20048;-77